sensor_id;sensor_type;location;lat;lon;timestamp;temperature;humidity
9448;DHT22;4762;48.128;11.376;2023-07-02T00:06:08;16.90;99.90
9448;DHT22;4762;48.128;11.376;2023-07-02T00:08:11;16.90;99.90
9448;DHT22;4762;48.128;11.376;2023-07-02T00:10:13;17.00;99.90
9448;DHT22;4762;48.128;11.376;2023-07-02T00:12:20;16.90;99.90
9448;DHT22;4762;48.128;11.376;2023-07-02T00:14:22;16.90;99.90
9448;DHT22;4762;48.128;11.376;2023-07-02T00:18:44;17.00;99.90
9448;DHT22;4762;48.128;11.376;2023-07-02T00:20:46;17.00;99.90
9448;DHT22;4762;48.128;11.376;2023-07-02T00:22:49;17.00;99.90
9448;DHT22;4762;48.128;11.376;2023-07-02T00:27:16;17.00;99.90
9448;DHT22;4762;48.128;11.376;2023-07-02T00:31:49;17.00;99.90
9448;DHT22;4762;48.128;11.376;2023-07-02T00:33:53;16.80;99.90
9448;DHT22;4762;48.128;11.376;2023-07-02T00:35:56;16.60;99.90
9448;DHT22;4762;48.128;11.376;2023-07-02T00:40:36;16.50;99.90
9448;DHT22;4762;48.128;11.376;2023-07-02T01:06:10;16.50;99.90
9448;DHT22;4762;48.128;11.376;2023-07-02T01:10:53;16.40;99.90
9448;DHT22;4762;48.128;11.376;2023-07-02T01:33:19;16.20;99.90
9448;DHT22;4762;48.128;11.376;2023-07-02T01:35:21;16.30;99.90
9448;DHT22;4762;48.128;11.376;2023-07-02T01:47:13;16.20;99.90
9448;DHT22;4762;48.128;11.376;2023-07-02T01:49:18;16.20;99.90
9448;DHT22;4762;48.128;11.376;2023-07-02T01:51:25;16.20;99.90
9448;DHT22;4762;48.128;11.376;2023-07-02T01:53:28;16.10;99.90
9448;DHT22;4762;48.128;11.376;2023-07-02T01:55:30;16.10;99.90
9448;DHT22;4762;48.128;11.376;2023-07-02T01:57:32;16.10;99.90
9448;DHT22;4762;48.128;11.376;2023-07-02T02:04:17;16.00;99.90
9448;DHT22;4762;48.128;11.376;2023-07-02T02:06:19;16.00;99.90
9448;DHT22;4762;48.128;11.376;2023-07-02T02:08:21;16.00;99.90
9448;DHT22;4762;48.128;11.376;2023-07-02T02:10:23;16.00;99.90
9448;DHT22;4762;48.128;11.376;2023-07-02T02:12:26;16.00;99.90
9448;DHT22;4762;48.128;11.376;2023-07-02T02:14:28;16.00;99.90
9448;DHT22;4762;48.128;11.376;2023-07-02T02:16:31;16.00;99.90
9448;DHT22;4762;48.128;11.376;2023-07-02T02:18:33;16.00;99.90
9448;DHT22;4762;48.128;11.376;2023-07-02T02:20:35;16.00;99.90
9448;DHT22;4762;48.128;11.376;2023-07-02T02:22:37;16.00;99.90
9448;DHT22;4762;48.128;11.376;2023-07-02T02:26:58;16.00;99.90
9448;DHT22;4762;48.128;11.376;2023-07-02T02:29:00;16.00;99.90
9448;DHT22;4762;48.128;11.376;2023-07-02T02:31:02;16.00;99.90
9448;DHT22;4762;48.128;11.376;2023-07-02T02:33:04;16.00;99.90
9448;DHT22;4762;48.128;11.376;2023-07-02T02:35:07;16.10;99.90
9448;DHT22;4762;48.128;11.376;2023-07-02T02:37:10;16.10;99.90
9448;DHT22;4762;48.128;11.376;2023-07-02T02:39:12;16.20;99.90
9448;DHT22;4762;48.128;11.376;2023-07-02T02:41:14;16.20;99.90
9448;DHT22;4762;48.128;11.376;2023-07-02T02:43:16;16.30;99.90
9448;DHT22;4762;48.128;11.376;2023-07-02T02:45:18;16.30;99.90
9448;DHT22;4762;48.128;11.376;2023-07-02T02:47:21;16.30;99.90
9448;DHT22;4762;48.128;11.376;2023-07-02T02:49:23;16.30;99.90
9448;DHT22;4762;48.128;11.376;2023-07-02T02:51:26;16.30;99.90
9448;DHT22;4762;48.128;11.376;2023-07-02T02:53:28;16.40;99.90
9448;DHT22;4762;48.128;11.376;2023-07-02T02:55:31;16.40;99.90
9448;DHT22;4762;48.128;11.376;2023-07-02T02:57:33;16.40;99.90
9448;DHT22;4762;48.128;11.376;2023-07-02T02:59:35;16.40;99.90
9448;DHT22;4762;48.128;11.376;2023-07-02T03:01:37;16.50;99.90
9448;DHT22;4762;48.128;11.376;2023-07-02T03:03:40;16.40;99.90
9448;DHT22;4762;48.128;11.376;2023-07-02T03:05:42;16.50;99.90
9448;DHT22;4762;48.128;11.376;2023-07-02T03:07:44;16.50;99.90
9448;DHT22;4762;48.128;11.376;2023-07-02T03:09:46;16.50;99.90
9448;DHT22;4762;48.128;11.376;2023-07-02T03:11:49;16.50;99.90
9448;DHT22;4762;48.128;11.376;2023-07-02T03:13:52;16.50;99.90
9448;DHT22;4762;48.128;11.376;2023-07-02T03:15:54;16.10;99.90
9448;DHT22;4762;48.128;11.376;2023-07-02T03:20:31;14.90;99.90
9448;DHT22;4762;48.128;11.376;2023-07-02T03:22:33;14.40;99.90
9448;DHT22;4762;48.128;11.376;2023-07-02T03:24:35;14.20;99.90
9448;DHT22;4762;48.128;11.376;2023-07-02T03:28:59;14.00;99.90
9448;DHT22;4762;48.128;11.376;2023-07-02T03:31:03;14.00;99.90
9448;DHT22;4762;48.128;11.376;2023-07-02T03:33:10;13.90;99.90
9448;DHT22;4762;48.128;11.376;2023-07-02T03:35:13;13.90;99.90
9448;DHT22;4762;48.128;11.376;2023-07-02T03:37:16;13.90;99.90
9448;DHT22;4762;48.128;11.376;2023-07-02T03:39:19;13.80;99.90
9448;DHT22;4762;48.128;11.376;2023-07-02T03:41:23;13.80;99.90
9448;DHT22;4762;48.128;11.376;2023-07-02T03:43:26;13.80;99.90
9448;DHT22;4762;48.128;11.376;2023-07-02T03:45:28;13.80;99.90
9448;DHT22;4762;48.128;11.376;2023-07-02T03:47:30;13.80;99.90
9448;DHT22;4762;48.128;11.376;2023-07-02T03:49:32;13.80;99.90
9448;DHT22;4762;48.128;11.376;2023-07-02T03:51:34;13.80;99.90
9448;DHT22;4762;48.128;11.376;2023-07-02T03:53:37;13.80;99.90
9448;DHT22;4762;48.128;11.376;2023-07-02T03:55:47;13.70;99.90
9448;DHT22;4762;48.128;11.376;2023-07-02T03:57:51;13.80;99.90
9448;DHT22;4762;48.128;11.376;2023-07-02T03:59:53;13.80;99.90
9448;DHT22;4762;48.128;11.376;2023-07-02T04:01:56;13.80;99.90
9448;DHT22;4762;48.128;11.376;2023-07-02T04:03:58;13.80;99.90
9448;DHT22;4762;48.128;11.376;2023-07-02T04:06:00;13.80;99.90
9448;DHT22;4762;48.128;11.376;2023-07-02T04:08:02;13.80;99.90
9448;DHT22;4762;48.128;11.376;2023-07-02T04:10:05;13.90;99.90
9448;DHT22;4762;48.128;11.376;2023-07-02T04:12:08;13.90;99.90
9448;DHT22;4762;48.128;11.376;2023-07-02T04:14:10;14.00;99.90
9448;DHT22;4762;48.128;11.376;2023-07-02T04:18:44;14.10;99.90
9448;DHT22;4762;48.128;11.376;2023-07-02T04:20:52;14.10;99.90
9448;DHT22;4762;48.128;11.376;2023-07-02T04:22:55;14.10;99.90
9448;DHT22;4762;48.128;11.376;2023-07-02T04:24:57;14.10;99.90
9448;DHT22;4762;48.128;11.376;2023-07-02T04:27:02;14.20;99.90
9448;DHT22;4762;48.128;11.376;2023-07-02T04:29:05;14.20;99.90
9448;DHT22;4762;48.128;11.376;2023-07-02T04:31:20;14.30;99.90
9448;DHT22;4762;48.128;11.376;2023-07-02T04:33:29;14.30;99.90
9448;DHT22;4762;48.128;11.376;2023-07-02T04:35:34;14.30;99.90
9448;DHT22;4762;48.128;11.376;2023-07-02T04:37:37;14.40;99.90
9448;DHT22;4762;48.128;11.376;2023-07-02T04:39:43;14.40;99.90
9448;DHT22;4762;48.128;11.376;2023-07-02T04:41:47;14.40;99.90
9448;DHT22;4762;48.128;11.376;2023-07-02T04:43:49;14.40;99.90
9448;DHT22;4762;48.128;11.376;2023-07-02T04:46:00;14.30;99.90
9448;DHT22;4762;48.128;11.376;2023-07-02T04:48:04;14.20;99.90
9448;DHT22;4762;48.128;11.376;2023-07-02T04:50:07;14.20;99.90
9448;DHT22;4762;48.128;11.376;2023-07-02T04:52:11;14.20;99.90
9448;DHT22;4762;48.128;11.376;2023-07-02T04:54:16;14.20;99.90
9448;DHT22;4762;48.128;11.376;2023-07-02T04:56:20;14.20;99.90
9448;DHT22;4762;48.128;11.376;2023-07-02T04:58:24;14.30;99.90
9448;DHT22;4762;48.128;11.376;2023-07-02T05:02:56;14.30;99.90
9448;DHT22;4762;48.128;11.376;2023-07-02T05:05:03;14.40;99.90
9448;DHT22;4762;48.128;11.376;2023-07-02T05:07:22;14.50;99.90
9448;DHT22;4762;48.128;11.376;2023-07-02T05:53:23;15.50;99.90
9448;DHT22;4762;48.128;11.376;2023-07-02T05:55:27;15.40;99.90
9448;DHT22;4762;48.128;11.376;2023-07-02T05:57:31;15.40;99.90
9448;DHT22;4762;48.128;11.376;2023-07-02T05:59:34;15.40;99.90
9448;DHT22;4762;48.128;11.376;2023-07-02T06:01:36;15.40;99.90
9448;DHT22;4762;48.128;11.376;2023-07-02T06:03:51;15.50;99.90
9448;DHT22;4762;48.128;11.376;2023-07-02T06:05:55;15.40;99.90
9448;DHT22;4762;48.128;11.376;2023-07-02T06:07:57;15.50;99.90
9448;DHT22;4762;48.128;11.376;2023-07-02T06:14:50;15.40;99.90
9448;DHT22;4762;48.128;11.376;2023-07-02T06:16:54;15.50;99.90
9448;DHT22;4762;48.128;11.376;2023-07-02T06:18:59;15.50;99.90
9448;DHT22;4762;48.128;11.376;2023-07-02T06:21:01;15.50;99.90
9448;DHT22;4762;48.128;11.376;2023-07-02T06:23:15;15.40;99.90
9448;DHT22;4762;48.128;11.376;2023-07-02T06:25:18;15.40;99.90
9448;DHT22;4762;48.128;11.376;2023-07-02T06:34:37;15.10;99.90
9448;DHT22;4762;48.128;11.376;2023-07-02T06:36:41;15.10;99.90
9448;DHT22;4762;48.128;11.376;2023-07-02T06:38:46;15.20;99.90
9448;DHT22;4762;48.128;11.376;2023-07-02T06:40:54;15.00;99.90
9448;DHT22;4762;48.128;11.376;2023-07-02T06:45:32;15.10;99.90
9448;DHT22;4762;48.128;11.376;2023-07-02T06:47:36;15.10;99.90
9448;DHT22;4762;48.128;11.376;2023-07-02T06:49:39;15.00;99.90
9448;DHT22;4762;48.128;11.376;2023-07-02T06:51:42;15.00;99.90
9448;DHT22;4762;48.128;11.376;2023-07-02T06:53:49;14.90;99.90
9448;DHT22;4762;48.128;11.376;2023-07-02T06:55:51;14.70;99.90
9448;DHT22;4762;48.128;11.376;2023-07-02T06:57:54;14.80;99.90
9448;DHT22;4762;48.128;11.376;2023-07-02T06:59:59;14.80;99.90
9448;DHT22;4762;48.128;11.376;2023-07-02T07:02:01;14.70;99.90
9448;DHT22;4762;48.128;11.376;2023-07-02T07:04:03;14.60;99.90
9448;DHT22;4762;48.128;11.376;2023-07-02T07:06:05;14.50;99.90
9448;DHT22;4762;48.128;11.376;2023-07-02T07:08:18;14.50;99.90
9448;DHT22;4762;48.128;11.376;2023-07-02T07:10:20;14.50;99.90
9448;DHT22;4762;48.128;11.376;2023-07-02T07:12:23;14.50;99.90
9448;DHT22;4762;48.128;11.376;2023-07-02T07:14:25;14.60;99.90
9448;DHT22;4762;48.128;11.376;2023-07-02T07:16:27;14.50;99.90
9448;DHT22;4762;48.128;11.376;2023-07-02T07:18:30;14.40;99.90
9448;DHT22;4762;48.128;11.376;2023-07-02T07:20:32;14.20;99.90
9448;DHT22;4762;48.128;11.376;2023-07-02T07:22:34;14.20;99.90
9448;DHT22;4762;48.128;11.376;2023-07-02T07:24:36;14.20;99.90
9448;DHT22;4762;48.128;11.376;2023-07-02T07:26:38;14.10;99.90
9448;DHT22;4762;48.128;11.376;2023-07-02T07:28:41;14.30;99.90
9448;DHT22;4762;48.128;11.376;2023-07-02T07:30:46;14.40;99.90
9448;DHT22;4762;48.128;11.376;2023-07-02T07:32:50;14.40;99.90
9448;DHT22;4762;48.128;11.376;2023-07-02T07:34:52;14.50;99.90
9448;DHT22;4762;48.128;11.376;2023-07-02T07:36:56;14.60;99.90
9448;DHT22;4762;48.128;11.376;2023-07-02T07:39:00;14.60;99.90
9448;DHT22;4762;48.128;11.376;2023-07-02T07:41:02;14.60;99.90
9448;DHT22;4762;48.128;11.376;2023-07-02T07:43:04;14.50;99.90
9448;DHT22;4762;48.128;11.376;2023-07-02T07:45:07;14.70;99.90
9448;DHT22;4762;48.128;11.376;2023-07-02T07:47:09;14.90;99.90
9448;DHT22;4762;48.128;11.376;2023-07-02T07:49:13;14.80;99.90
9448;DHT22;4762;48.128;11.376;2023-07-02T07:51:16;15.00;99.90
9448;DHT22;4762;48.128;11.376;2023-07-02T07:53:18;15.10;99.90
9448;DHT22;4762;48.128;11.376;2023-07-02T07:55:21;15.30;99.90
9448;DHT22;4762;48.128;11.376;2023-07-02T07:57:29;15.40;99.90
9448;DHT22;4762;48.128;11.376;2023-07-02T07:59:32;15.50;99.90
9448;DHT22;4762;48.128;11.376;2023-07-02T08:01:36;15.80;99.90
9448;DHT22;4762;48.128;11.376;2023-07-02T08:03:38;15.80;99.90
9448;DHT22;4762;48.128;11.376;2023-07-02T08:05:42;15.90;99.90
9448;DHT22;4762;48.128;11.376;2023-07-02T08:07:45;15.90;99.90
9448;DHT22;4762;48.128;11.376;2023-07-02T08:09:47;15.90;99.90
9448;DHT22;4762;48.128;11.376;2023-07-02T08:11:50;15.70;99.90
9448;DHT22;4762;48.128;11.376;2023-07-02T08:13:52;15.70;99.90
9448;DHT22;4762;48.128;11.376;2023-07-02T08:15:55;15.80;99.90
9448;DHT22;4762;48.128;11.376;2023-07-02T08:17:57;15.90;99.90
9448;DHT22;4762;48.128;11.376;2023-07-02T08:20:00;16.00;99.90
9448;DHT22;4762;48.128;11.376;2023-07-02T08:22:02;15.90;99.90
9448;DHT22;4762;48.128;11.376;2023-07-02T08:24:05;15.80;99.90
9448;DHT22;4762;48.128;11.376;2023-07-02T08:26:09;15.80;99.90
9448;DHT22;4762;48.128;11.376;2023-07-02T08:28:11;15.90;99.90
9448;DHT22;4762;48.128;11.376;2023-07-02T08:30:13;16.10;99.90
9448;DHT22;4762;48.128;11.376;2023-07-02T08:32:15;16.20;99.90
9448;DHT22;4762;48.128;11.376;2023-07-02T08:34:19;16.00;99.90
9448;DHT22;4762;48.128;11.376;2023-07-02T08:36:22;16.10;99.90
9448;DHT22;4762;48.128;11.376;2023-07-02T08:38:24;15.90;99.90
9448;DHT22;4762;48.128;11.376;2023-07-02T08:40:26;15.80;99.90
9448;DHT22;4762;48.128;11.376;2023-07-02T08:42:33;15.70;99.90
9448;DHT22;4762;48.128;11.376;2023-07-02T08:44:35;15.50;99.90
9448;DHT22;4762;48.128;11.376;2023-07-02T08:46:37;15.50;99.90
9448;DHT22;4762;48.128;11.376;2023-07-02T08:53:55;15.50;99.90
9448;DHT22;4762;48.128;11.376;2023-07-02T08:55:57;15.50;99.90
9448;DHT22;4762;48.128;11.376;2023-07-02T08:58:00;15.50;99.90
9448;DHT22;4762;48.128;11.376;2023-07-02T09:00:05;15.60;99.90
9448;DHT22;4762;48.128;11.376;2023-07-02T09:02:06;15.60;99.90
9448;DHT22;4762;48.128;11.376;2023-07-02T09:04:14;15.70;99.90
9448;DHT22;4762;48.128;11.376;2023-07-02T09:06:11;15.60;99.90
9448;DHT22;4762;48.128;11.376;2023-07-02T09:08:12;15.50;99.90
9448;DHT22;4762;48.128;11.376;2023-07-02T09:10:31;15.60;99.90
9448;DHT22;4762;48.128;11.376;2023-07-02T09:12:34;15.70;99.90
9448;DHT22;4762;48.128;11.376;2023-07-02T09:14:36;15.70;99.90
9448;DHT22;4762;48.128;11.376;2023-07-02T09:16:38;15.80;99.90
9448;DHT22;4762;48.128;11.376;2023-07-02T09:18:40;15.70;99.90
9448;DHT22;4762;48.128;11.376;2023-07-02T09:20:43;15.70;99.90
9448;DHT22;4762;48.128;11.376;2023-07-02T09:22:53;15.60;99.90
9448;DHT22;4762;48.128;11.376;2023-07-02T09:24:51;15.50;99.90
9448;DHT22;4762;48.128;11.376;2023-07-02T09:26:55;15.50;99.90
9448;DHT22;4762;48.128;11.376;2023-07-02T09:29:00;15.50;99.90
9448;DHT22;4762;48.128;11.376;2023-07-02T09:31:02;15.50;99.90
9448;DHT22;4762;48.128;11.376;2023-07-02T09:33:07;15.60;99.90
9448;DHT22;4762;48.128;11.376;2023-07-02T09:35:10;15.70;99.90
9448;DHT22;4762;48.128;11.376;2023-07-02T09:37:13;15.70;99.90
9448;DHT22;4762;48.128;11.376;2023-07-02T09:39:18;15.60;99.90
9448;DHT22;4762;48.128;11.376;2023-07-02T09:41:20;15.50;99.90
9448;DHT22;4762;48.128;11.376;2023-07-02T09:43:22;15.50;99.90
9448;DHT22;4762;48.128;11.376;2023-07-02T09:45:24;15.60;99.90
9448;DHT22;4762;48.128;11.376;2023-07-02T09:47:26;15.70;99.90
9448;DHT22;4762;48.128;11.376;2023-07-02T09:49:39;15.60;99.90
9448;DHT22;4762;48.128;11.376;2023-07-02T09:51:41;15.60;99.90
9448;DHT22;4762;48.128;11.376;2023-07-02T09:53:43;15.60;99.90
9448;DHT22;4762;48.128;11.376;2023-07-02T09:55:46;15.70;99.90
9448;DHT22;4762;48.128;11.376;2023-07-02T09:57:49;15.60;99.90
9448;DHT22;4762;48.128;11.376;2023-07-02T09:59:51;15.60;99.90
9448;DHT22;4762;48.128;11.376;2023-07-02T10:01:54;15.90;99.90
9448;DHT22;4762;48.128;11.376;2023-07-02T10:37:43;20.20;99.90
9448;DHT22;4762;48.128;11.376;2023-07-02T11:19:07;23.40;87.70
9448;DHT22;4762;48.128;11.376;2023-07-02T11:21:15;23.60;99.90
9448;DHT22;4762;48.128;11.376;2023-07-02T11:23:21;24.00;97.30
9448;DHT22;4762;48.128;11.376;2023-07-02T11:25:24;24.50;91.90
9448;DHT22;4762;48.128;11.376;2023-07-02T11:27:27;24.60;93.00
9448;DHT22;4762;48.128;11.376;2023-07-02T11:29:31;24.00;86.00
9448;DHT22;4762;48.128;11.376;2023-07-02T11:31:33;23.50;94.80
9448;DHT22;4762;48.128;11.376;2023-07-02T11:33:37;23.30;91.80
9448;DHT22;4762;48.128;11.376;2023-07-02T11:35:40;22.90;87.50
9448;DHT22;4762;48.128;11.376;2023-07-02T11:37:42;22.50;94.40
9448;DHT22;4762;48.128;11.376;2023-07-02T11:39:45;23.00;85.70
9448;DHT22;4762;48.128;11.376;2023-07-02T11:41:47;22.80;93.80
9448;DHT22;4762;48.128;11.376;2023-07-02T11:43:59;22.50;93.10
9448;DHT22;4762;48.128;11.376;2023-07-02T11:46:07;22.80;90.10
9448;DHT22;4762;48.128;11.376;2023-07-02T11:48:10;22.10;97.80
9448;DHT22;4762;48.128;11.376;2023-07-02T11:50:12;21.80;99.90
9448;DHT22;4762;48.128;11.376;2023-07-02T11:52:15;21.90;96.50
9448;DHT22;4762;48.128;11.376;2023-07-02T11:54:24;22.70;95.70
9448;DHT22;4762;48.128;11.376;2023-07-02T11:56:28;22.50;90.90
9448;DHT22;4762;48.128;11.376;2023-07-02T11:58:30;22.50;99.90
9448;DHT22;4762;48.128;11.376;2023-07-02T12:00:33;23.30;93.30
9448;DHT22;4762;48.128;11.376;2023-07-02T12:02:35;23.50;94.00
9448;DHT22;4762;48.128;11.376;2023-07-02T12:09:36;25.10;80.20
9448;DHT22;4762;48.128;11.376;2023-07-02T12:11:41;25.30;72.10
9448;DHT22;4762;48.128;11.376;2023-07-02T12:16:11;26.00;73.40
9448;DHT22;4762;48.128;11.376;2023-07-02T12:18:31;26.40;69.40
9448;DHT22;4762;48.128;11.376;2023-07-02T12:20:34;26.30;75.60
9448;DHT22;4762;48.128;11.376;2023-07-02T12:22:40;25.20;71.50
9448;DHT22;4762;48.128;11.376;2023-07-02T12:24:47;25.90;65.10
9448;DHT22;4762;48.128;11.376;2023-07-02T12:26:53;25.70;65.60
9448;DHT22;4762;48.128;11.376;2023-07-02T12:31:31;25.40;64.10
9448;DHT22;4762;48.128;11.376;2023-07-02T12:33:44;25.60;62.70
9448;DHT22;4762;48.128;11.376;2023-07-02T12:35:46;25.90;63.40
9448;DHT22;4762;48.128;11.376;2023-07-02T12:40:20;25.90;60.40
9448;DHT22;4762;48.128;11.376;2023-07-02T12:42:22;25.80;57.60
9448;DHT22;4762;48.128;11.376;2023-07-02T12:46:51;26.10;59.40
9448;DHT22;4762;48.128;11.376;2023-07-02T12:51:11;25.60;61.70
9448;DHT22;4762;48.128;11.376;2023-07-02T12:53:15;25.70;61.50
9448;DHT22;4762;48.128;11.376;2023-07-02T12:55:19;25.90;56.00
9448;DHT22;4762;48.128;11.376;2023-07-02T12:57:21;26.20;57.20
9448;DHT22;4762;48.128;11.376;2023-07-02T12:59:23;26.40;53.60
9448;DHT22;4762;48.128;11.376;2023-07-02T13:04:03;27.20;54.90
9448;DHT22;4762;48.128;11.376;2023-07-02T13:06:12;25.60;53.20
9448;DHT22;4762;48.128;11.376;2023-07-02T13:08:14;25.80;55.80
9448;DHT22;4762;48.128;11.376;2023-07-02T13:10:16;25.50;55.40
9448;DHT22;4762;48.128;11.376;2023-07-02T13:12:18;25.80;55.80
9448;DHT22;4762;48.128;11.376;2023-07-02T13:14:21;26.50;58.50
9448;DHT22;4762;48.128;11.376;2023-07-02T13:16:24;26.80;54.80
9448;DHT22;4762;48.128;11.376;2023-07-02T13:18:27;26.40;58.40
9448;DHT22;4762;48.128;11.376;2023-07-02T13:20:29;26.20;53.70
9448;DHT22;4762;48.128;11.376;2023-07-02T13:22:32;26.20;54.90
9448;DHT22;4762;48.128;11.376;2023-07-02T13:24:35;26.40;56.30
9448;DHT22;4762;48.128;11.376;2023-07-02T13:26:37;26.60;55.20
9448;DHT22;4762;48.128;11.376;2023-07-02T13:28:39;26.40;55.70
9448;DHT22;4762;48.128;11.376;2023-07-02T13:30:41;26.20;56.00
9448;DHT22;4762;48.128;11.376;2023-07-02T13:32:44;26.90;50.60
9448;DHT22;4762;48.128;11.376;2023-07-02T13:34:46;26.20;51.60
9448;DHT22;4762;48.128;11.376;2023-07-02T13:36:48;26.00;53.90
9448;DHT22;4762;48.128;11.376;2023-07-02T13:38:51;25.80;53.00
9448;DHT22;4762;48.128;11.376;2023-07-02T13:40:54;26.30;55.30
9448;DHT22;4762;48.128;11.376;2023-07-02T13:42:58;26.60;54.70
9448;DHT22;4762;48.128;11.376;2023-07-02T13:45:00;26.20;53.80
9448;DHT22;4762;48.128;11.376;2023-07-02T13:47:03;26.40;52.70
9448;DHT22;4762;48.128;11.376;2023-07-02T13:49:06;27.10;52.40
9448;DHT22;4762;48.128;11.376;2023-07-02T13:51:08;27.10;52.50
9448;DHT22;4762;48.128;11.376;2023-07-02T13:53:12;26.70;50.60
9448;DHT22;4762;48.128;11.376;2023-07-02T13:55:14;27.00;49.50
9448;DHT22;4762;48.128;11.376;2023-07-02T13:57:16;25.80;53.40
9448;DHT22;4762;48.128;11.376;2023-07-02T13:59:19;25.20;51.90
9448;DHT22;4762;48.128;11.376;2023-07-02T14:01:22;25.30;52.90
9448;DHT22;4762;48.128;11.376;2023-07-02T14:03:24;25.90;53.70
9448;DHT22;4762;48.128;11.376;2023-07-02T14:05:27;26.70;51.50
9448;DHT22;4762;48.128;11.376;2023-07-02T14:07:29;27.40;51.30
9448;DHT22;4762;48.128;11.376;2023-07-02T14:09:32;26.50;47.50
9448;DHT22;4762;48.128;11.376;2023-07-02T14:11:34;26.00;50.30
9448;DHT22;4762;48.128;11.376;2023-07-02T14:13:37;26.00;52.00
9448;DHT22;4762;48.128;11.376;2023-07-02T14:15:41;27.00;51.00
9448;DHT22;4762;48.128;11.376;2023-07-02T14:17:43;26.60;50.60
9448;DHT22;4762;48.128;11.376;2023-07-02T14:19:45;26.40;48.90
9448;DHT22;4762;48.128;11.376;2023-07-02T14:21:48;26.70;50.00
9448;DHT22;4762;48.128;11.376;2023-07-02T14:23:51;27.30;50.10
9448;DHT22;4762;48.128;11.376;2023-07-02T14:25:59;26.60;49.70
9448;DHT22;4762;48.128;11.376;2023-07-02T14:28:01;26.50;48.90
9448;DHT22;4762;48.128;11.376;2023-07-02T14:30:04;26.50;49.50
9448;DHT22;4762;48.128;11.376;2023-07-02T14:32:15;26.00;48.30
9448;DHT22;4762;48.128;11.376;2023-07-02T14:36:56;26.50;51.20
9448;DHT22;4762;48.128;11.376;2023-07-02T14:38:58;26.70;49.70
9448;DHT22;4762;48.128;11.376;2023-07-02T14:41:01;26.60;49.40
9448;DHT22;4762;48.128;11.376;2023-07-02T14:43:04;27.00;49.50
9448;DHT22;4762;48.128;11.376;2023-07-02T14:45:06;27.60;47.20
9448;DHT22;4762;48.128;11.376;2023-07-02T14:47:08;27.10;46.80
9448;DHT22;4762;48.128;11.376;2023-07-02T14:49:11;27.20;47.70
9448;DHT22;4762;48.128;11.376;2023-07-02T14:51:13;26.80;47.90
9448;DHT22;4762;48.128;11.376;2023-07-02T14:53:16;26.40;50.90
9448;DHT22;4762;48.128;11.376;2023-07-02T14:55:17;25.40;52.90
9448;DHT22;4762;48.128;11.376;2023-07-02T14:57:20;26.20;53.50
9448;DHT22;4762;48.128;11.376;2023-07-02T14:59:22;27.00;49.50
9448;DHT22;4762;48.128;11.376;2023-07-02T15:01:24;27.30;47.50
9448;DHT22;4762;48.128;11.376;2023-07-02T15:03:27;26.80;49.30
9448;DHT22;4762;48.128;11.376;2023-07-02T15:05:28;26.60;50.10
9448;DHT22;4762;48.128;11.376;2023-07-02T15:07:31;27.00;51.80
9448;DHT22;4762;48.128;11.376;2023-07-02T15:09:33;27.00;46.10
9448;DHT22;4762;48.128;11.376;2023-07-02T15:11:35;26.80;48.30
9448;DHT22;4762;48.128;11.376;2023-07-02T15:13:38;26.80;47.20
9448;DHT22;4762;48.128;11.376;2023-07-02T15:15:42;26.50;47.50
9448;DHT22;4762;48.128;11.376;2023-07-02T15:20:23;26.20;50.00
9448;DHT22;4762;48.128;11.376;2023-07-02T15:22:25;26.40;49.20
9448;DHT22;4762;48.128;11.376;2023-07-02T15:24:28;26.10;48.90
9448;DHT22;4762;48.128;11.376;2023-07-02T15:26:38;26.10;52.00
9448;DHT22;4762;48.128;11.376;2023-07-02T15:28:40;26.70;49.30
9448;DHT22;4762;48.128;11.376;2023-07-02T15:30:44;26.60;49.90
9448;DHT22;4762;48.128;11.376;2023-07-02T15:32:46;25.90;48.30
9448;DHT22;4762;48.128;11.376;2023-07-02T15:34:50;26.10;49.00
9448;DHT22;4762;48.128;11.376;2023-07-02T15:36:53;26.40;48.80
9448;DHT22;4762;48.128;11.376;2023-07-02T15:39:02;26.90;47.70
9448;DHT22;4762;48.128;11.376;2023-07-02T15:41:12;26.50;47.40
9448;DHT22;4762;48.128;11.376;2023-07-02T15:43:14;25.90;48.70
9448;DHT22;4762;48.128;11.376;2023-07-02T15:45:16;25.10;50.30
9448;DHT22;4762;48.128;11.376;2023-07-02T15:47:20;25.10;52.00
9448;DHT22;4762;48.128;11.376;2023-07-02T15:49:23;24.70;52.60
9448;DHT22;4762;48.128;11.376;2023-07-02T15:51:26;24.90;52.60
9448;DHT22;4762;48.128;11.376;2023-07-02T15:53:29;25.70;50.90
9448;DHT22;4762;48.128;11.376;2023-07-02T15:55:33;25.00;50.60
9448;DHT22;4762;48.128;11.376;2023-07-02T15:57:36;24.40;51.30
9448;DHT22;4762;48.128;11.376;2023-07-02T15:59:39;24.80;52.30
9448;DHT22;4762;48.128;11.376;2023-07-02T16:01:47;25.10;49.70
9448;DHT22;4762;48.128;11.376;2023-07-02T16:03:48;25.00;51.00
9448;DHT22;4762;48.128;11.376;2023-07-02T16:05:55;25.20;50.50
9448;DHT22;4762;48.128;11.376;2023-07-02T16:07:52;24.60;52.50
9448;DHT22;4762;48.128;11.376;2023-07-02T16:09:54;24.50;53.20
9448;DHT22;4762;48.128;11.376;2023-07-02T16:11:57;24.20;54.80
9448;DHT22;4762;48.128;11.376;2023-07-02T16:13:59;24.50;54.90
9448;DHT22;4762;48.128;11.376;2023-07-02T16:16:01;24.50;54.10
9448;DHT22;4762;48.128;11.376;2023-07-02T16:18:03;24.30;53.80
9448;DHT22;4762;48.128;11.376;2023-07-02T16:20:06;24.10;54.00
9448;DHT22;4762;48.128;11.376;2023-07-02T16:22:08;23.90;53.60
9448;DHT22;4762;48.128;11.376;2023-07-02T16:24:20;23.80;55.60
9448;DHT22;4762;48.128;11.376;2023-07-02T16:26:20;23.90;54.40
9448;DHT22;4762;48.128;11.376;2023-07-02T16:28:24;23.80;55.10
9448;DHT22;4762;48.128;11.376;2023-07-02T16:30:26;23.50;55.00
9448;DHT22;4762;48.128;11.376;2023-07-02T16:32:28;23.20;55.30
9448;DHT22;4762;48.128;11.376;2023-07-02T16:34:31;23.20;56.80
9448;DHT22;4762;48.128;11.376;2023-07-02T16:36:34;23.30;55.60
9448;DHT22;4762;48.128;11.376;2023-07-02T16:38:37;23.20;56.10
9448;DHT22;4762;48.128;11.376;2023-07-02T16:40:39;23.10;57.80
9448;DHT22;4762;48.128;11.376;2023-07-02T16:42:42;23.20;56.80
9448;DHT22;4762;48.128;11.376;2023-07-02T16:44:45;23.30;57.00
9448;DHT22;4762;48.128;11.376;2023-07-02T16:46:50;23.10;56.00
9448;DHT22;4762;48.128;11.376;2023-07-02T16:48:54;23.10;56.60
9448;DHT22;4762;48.128;11.376;2023-07-02T16:51:00;23.50;57.10
9448;DHT22;4762;48.128;11.376;2023-07-02T16:53:05;23.70;54.70
9448;DHT22;4762;48.128;11.376;2023-07-02T16:55:08;23.60;57.00
9448;DHT22;4762;48.128;11.376;2023-07-02T16:57:11;23.60;56.20
9448;DHT22;4762;48.128;11.376;2023-07-02T16:59:14;23.40;54.80
9448;DHT22;4762;48.128;11.376;2023-07-02T17:01:19;23.20;55.90
9448;DHT22;4762;48.128;11.376;2023-07-02T17:03:23;23.10;56.80
9448;DHT22;4762;48.128;11.376;2023-07-02T17:05:26;23.00;56.30
9448;DHT22;4762;48.128;11.376;2023-07-02T17:07:28;22.90;57.90
9448;DHT22;4762;48.128;11.376;2023-07-02T17:09:33;22.90;57.60
9448;DHT22;4762;48.128;11.376;2023-07-02T17:11:34;22.90;58.30
9448;DHT22;4762;48.128;11.376;2023-07-02T17:13:37;22.90;57.40
9448;DHT22;4762;48.128;11.376;2023-07-02T17:15:40;22.80;56.70
9448;DHT22;4762;48.128;11.376;2023-07-02T17:17:42;22.70;57.40
9448;DHT22;4762;48.128;11.376;2023-07-02T17:19:45;22.70;58.10
9448;DHT22;4762;48.128;11.376;2023-07-02T17:22:07;22.80;58.70